createdAt,value
2023-01-31T00:00:26.464Z,65.20
2023-01-31T00:02:52.980Z,65.20
2023-01-31T00:05:20.343Z,65.30
2023-01-31T00:07:47.801Z,65.20
2023-01-31T00:10:14.444Z,65.20
2023-01-31T00:12:40.980Z,65.20
2023-01-31T00:15:07.785Z,65.20
2023-01-31T00:17:34.340Z,65.20
2023-01-31T00:20:00.865Z,65.20
2023-01-31T00:22:27.444Z,65.20
2023-01-31T00:24:53.995Z,65.10
2023-01-31T00:27:20.492Z,65.10
2023-01-31T00:29:47.001Z,65.10
2023-01-31T00:32:13.632Z,65.10
2023-01-31T00:34:40.191Z,65.10
2023-01-31T00:37:06.756Z,65.10
2023-01-31T00:39:33.376Z,65.10
2023-01-31T00:41:59.899Z,65.10
2023-01-31T00:44:26.424Z,65.10
2023-01-31T00:46:52.970Z,65.00
2023-01-31T00:49:19.678Z,65.80
2023-01-31T00:51:46.206Z,65.90
2023-01-31T00:54:12.752Z,66.10
2023-01-31T00:56:39.353Z,65.80
2023-01-31T00:59:08.550Z,65.60
2023-01-31T01:01:36.086Z,65.50
2023-01-31T01:04:02.758Z,65.90
2023-01-31T01:06:29.410Z,66.30
2023-01-31T01:08:56.441Z,65.60
2023-01-31T01:11:27.186Z,65.60
2023-01-31T01:13:54.256Z,64.90
2023-01-31T01:16:25.562Z,67.30
2023-01-31T01:18:54.980Z,66.20
2023-01-31T01:21:23.167Z,65.00
2023-01-31T01:23:50.384Z,66.60
2023-01-31T01:26:18.492Z,67.70
2023-01-31T01:28:45.528Z,68.00
2023-01-31T01:31:12.991Z,69.20
2023-01-31T01:33:39.754Z,68.30
2023-01-31T01:36:07.510Z,68.00
2023-01-31T01:38:35.098Z,68.20
2023-01-31T01:41:01.836Z,68.40
2023-01-31T01:43:43.930Z,68.40
2023-01-31T01:46:12.125Z,68.30
2023-01-31T01:48:39.064Z,67.70
2023-01-31T01:51:06.720Z,68.20
2023-01-31T01:53:34.539Z,68.80
2023-01-31T01:56:03.135Z,68.80
2023-01-31T01:58:32.711Z,69.00
2023-01-31T02:00:59.773Z,67.80
2023-01-31T02:03:27.317Z,67.10
2023-01-31T02:05:58.896Z,67.00
2023-01-31T02:08:26.917Z,68.50
2023-01-31T02:10:56.235Z,69.10
2023-01-31T02:13:23.212Z,70.00
2023-01-31T02:15:49.722Z,69.10
2023-01-31T02:18:16.810Z,69.80
2023-01-31T02:21:07.221Z,70.60
2023-01-31T02:23:33.707Z,70.00
2023-01-31T02:26:23.463Z,71.00
2023-01-31T02:29:08.709Z,69.90
2023-01-31T02:31:45.658Z,71.80
2023-01-31T02:34:25.996Z,72.20
2023-01-31T02:37:01.595Z,73.00
2023-01-31T02:39:31.285Z,73.20
2023-01-31T02:42:05.706Z,73.20
2023-01-31T02:44:55.698Z,73.00
2023-01-31T02:47:31.114Z,72.90
2023-01-31T02:50:05.094Z,72.90
2023-01-31T02:52:35.119Z,73.20
2023-01-31T02:55:26.763Z,73.20
2023-01-31T02:57:54.401Z,73.20
2023-01-31T03:00:22.045Z,73.10
2023-01-31T03:02:48.813Z,73.10
2023-01-31T03:05:16.367Z,73.10
2023-01-31T03:07:44.483Z,73.00
2023-01-31T03:10:11.008Z,73.00
2023-01-31T03:12:49.698Z,73.00
2023-01-31T03:15:24.605Z,74.30
2023-01-31T03:17:51.443Z,74.10
2023-01-31T03:20:43.593Z,74.70
2023-01-31T03:23:15.986Z,74.50
2023-01-31T03:25:43.492Z,74.00
2023-01-31T03:28:13.125Z,74.10
2023-01-31T03:30:41.814Z,73.50
2023-01-31T03:33:10.866Z,73.10
2023-01-31T03:35:39.104Z,73.00
2023-01-31T03:38:17.006Z,73.00
2023-01-31T03:40:48.275Z,73.00
2023-01-31T03:43:24.993Z,73.00
2023-01-31T03:45:55.458Z,73.00
2023-01-31T03:48:22.709Z,73.00
2023-01-31T03:50:55.539Z,73.10
2023-01-31T03:53:25.368Z,74.30
2023-01-31T03:55:54.279Z,74.20
2023-01-31T03:58:22.631Z,74.30
2023-01-31T04:00:49.797Z,73.70
2023-01-31T04:03:20.724Z,74.00
2023-01-31T04:05:49.074Z,74.40
2023-01-31T04:08:16.585Z,74.70
2023-01-31T04:10:43.253Z,74.50
2023-01-31T04:13:09.792Z,74.70
2023-01-31T04:15:36.958Z,75.00
2023-01-31T04:18:03.631Z,75.80
2023-01-31T04:20:30.131Z,76.40
2023-01-31T04:22:56.624Z,76.10
2023-01-31T04:25:23.454Z,75.70
2023-01-31T04:27:51.497Z,76.20
2023-01-31T04:30:18.249Z,76.10
2023-01-31T04:32:44.763Z,75.60
2023-01-31T04:35:11.502Z,75.30
2023-01-31T04:37:38.079Z,76.80
2023-01-31T04:40:05.832Z,74.80
2023-01-31T04:42:33.115Z,75.40
2023-01-31T04:44:59.881Z,75.80
2023-01-31T04:47:26.412Z,76.20
2023-01-31T04:49:52.910Z,76.50
2023-01-31T04:52:19.416Z,76.20
2023-01-31T04:54:46.005Z,75.80
2023-01-31T04:57:12.577Z,74.70
2023-01-31T04:59:39.078Z,75.00
2023-01-31T05:02:06.220Z,73.80
2023-01-31T05:04:32.968Z,73.10
2023-01-31T05:06:59.534Z,74.10
2023-01-31T05:09:26.365Z,73.80
2023-01-31T05:11:53.116Z,74.20
2023-01-31T05:14:21.073Z,74.20
2023-01-31T05:16:47.708Z,74.90
2023-01-31T05:19:14.804Z,75.40
2023-01-31T05:21:59.850Z,75.20
2023-01-31T05:24:27.672Z,76.00
2023-01-31T05:26:58.400Z,76.70
2023-01-31T05:29:25.758Z,76.90
2023-01-31T05:31:53.385Z,76.90
2023-01-31T05:34:20.011Z,77.70
2023-01-31T05:36:46.687Z,77.60
2023-01-31T05:39:13.252Z,77.80
2023-01-31T05:41:39.788Z,76.90
2023-01-31T05:44:06.401Z,77.70
2023-01-31T05:46:32.990Z,77.90
2023-01-31T05:48:59.590Z,78.20
2023-01-31T05:51:26.197Z,78.10
2023-01-31T05:53:52.807Z,78.00
2023-01-31T05:56:19.324Z,78.10
2023-01-31T05:58:50.343Z,77.80
2023-01-31T06:01:22.117Z,77.50
2023-01-31T06:03:49.604Z,77.80
2023-01-31T06:06:16.437Z,77.80
2023-01-31T06:08:43.404Z,77.10
2023-01-31T06:11:13.253Z,77.10
2023-01-31T06:13:40.534Z,77.10
2023-01-31T06:16:07.315Z,76.70
2023-01-31T06:18:33.939Z,76.00
2023-01-31T06:21:00.759Z,75.60
2023-01-31T06:23:27.528Z,75.50
2023-01-31T06:25:55.251Z,75.40
2023-01-31T06:28:22.120Z,75.40
2023-01-31T06:30:49.073Z,75.20
2023-01-31T06:33:15.644Z,75.40
2023-01-31T06:35:42.238Z,75.50
2023-01-31T06:38:09.051Z,75.30
2023-01-31T06:40:38.363Z,74.90
2023-01-31T06:43:04.894Z,74.60
2023-01-31T06:45:31.921Z,74.10
2023-01-31T06:47:58.508Z,73.90
2023-01-31T06:50:25.070Z,73.20
2023-01-31T06:52:51.570Z,73.20
2023-01-31T06:55:18.477Z,73.10
2023-01-31T06:57:45.909Z,72.30
2023-01-31T07:00:12.697Z,71.80
2023-01-31T07:02:39.222Z,70.70
2023-01-31T07:05:06.060Z,70.90
2023-01-31T07:07:32.768Z,69.30
2023-01-31T07:09:59.448Z,69.10
2023-01-31T07:12:26.486Z,68.60
2023-01-31T07:14:53.090Z,67.90
2023-01-31T07:17:21.102Z,67.50
2023-01-31T07:19:47.665Z,67.20
2023-01-31T07:22:14.212Z,67.40
2023-01-31T07:24:41.354Z,66.60
2023-01-31T07:27:08.128Z,65.30
2023-01-31T07:29:36.312Z,64.90
2023-01-31T07:32:04.083Z,64.90
2023-01-31T07:34:31.189Z,64.80
2023-01-31T07:36:57.764Z,64.10
2023-01-31T07:39:24.281Z,62.70
2023-01-31T07:41:50.838Z,62.40
2023-01-31T07:44:17.358Z,61.00
2023-01-31T07:46:43.938Z,60.70
2023-01-31T07:49:10.555Z,59.20
2023-01-31T07:51:38.778Z,58.10
2023-01-31T07:54:06.054Z,56.00
2023-01-31T07:56:33.220Z,55.90
2023-01-31T07:58:59.987Z,56.10
2023-01-31T08:01:47.179Z,52.50
2023-01-31T08:04:21.490Z,49.90
2023-01-31T08:06:49.844Z,46.20
2023-01-31T08:09:16.378Z,41.10
2023-01-31T08:11:42.928Z,36.00
2023-01-31T08:14:09.960Z,35.00
2023-01-31T08:16:36.893Z,33.60
2023-01-31T08:19:04.200Z,32.00
2023-01-31T08:21:30.813Z,31.80
2023-01-31T08:23:57.439Z,32.00
2023-01-31T08:26:24.006Z,33.40
2023-01-31T08:28:51.627Z,31.60
2023-01-31T08:31:22.538Z,32.70
2023-01-31T08:33:51.411Z,31.40
2023-01-31T08:36:19.688Z,30.30
2023-01-31T08:38:46.609Z,28.10
2023-01-31T08:41:13.699Z,26.30
2023-01-31T08:43:54.234Z,22.30
2023-01-31T08:46:22.731Z,15.80
2023-01-31T08:48:49.239Z,7.20
2023-01-31T08:51:15.899Z,1.00
2023-01-31T08:53:46.195Z,1.00
2023-01-31T08:56:13.717Z,1.00
2023-01-31T08:58:44.338Z,1.00
2023-01-31T09:01:12.144Z,2.80
2023-01-31T09:03:39.023Z,6.50
2023-01-31T09:06:07.232Z,8.80
2023-01-31T09:08:34.126Z,12.60
2023-01-31T09:11:00.899Z,13.30
2023-01-31T09:13:27.808Z,15.20
2023-01-31T09:15:58.185Z,16.10
2023-01-31T09:18:24.758Z,17.00
2023-01-31T09:20:51.293Z,17.50
2023-01-31T09:23:20.030Z,17.50
2023-01-31T09:25:53.827Z,17.50
2023-01-31T09:28:20.766Z,17.50
2023-01-31T09:30:47.892Z,17.40
2023-01-31T09:33:14.441Z,18.50
2023-01-31T09:35:40.952Z,17.40
2023-01-31T09:38:07.607Z,17.40
2023-01-31T09:40:35.662Z,19.30
2023-01-31T09:43:02.971Z,18.70
2023-01-31T09:45:32.056Z,20.10
2023-01-31T09:47:59.743Z,21.30
2023-01-31T09:50:37.475Z,20.90
2023-01-31T09:53:04.312Z,21.50
2023-01-31T09:55:44.454Z,20.70
2023-01-31T09:58:29.766Z,20.90
2023-01-31T10:01:11.322Z,20.30
2023-01-31T10:03:44.135Z,19.60
2023-01-31T10:06:12.089Z,19.40
2023-01-31T10:08:46.101Z,18.40
2023-01-31T10:11:22.624Z,19.20
2023-01-31T10:13:51.966Z,17.60
2023-01-31T10:16:21.517Z,20.40
2023-01-31T10:18:50.247Z,18.80
2023-01-31T10:21:18.185Z,17.60
2023-01-31T10:23:48.348Z,17.70
2023-01-31T10:26:27.193Z,17.70
2023-01-31T10:29:13.764Z,17.80
2023-01-31T10:31:44.259Z,17.70
2023-01-31T10:34:14.813Z,16.60
2023-01-31T10:36:47.805Z,15.50
2023-01-31T10:39:29.402Z,13.00
2023-01-31T10:42:03.630Z,10.30
2023-01-31T10:44:44.321Z,9.10
2023-01-31T10:47:12.703Z,6.20
2023-01-31T10:49:39.515Z,5.60
2023-01-31T10:52:13.188Z,7.00
2023-01-31T10:55:05.996Z,6.50
2023-01-31T10:57:32.924Z,6.70
2023-01-31T10:59:59.579Z,7.30
2023-01-31T11:02:27.499Z,7.80
2023-01-31T11:04:55.692Z,9.10
2023-01-31T11:07:22.471Z,9.10
2023-01-31T11:09:51.747Z,7.20
2023-01-31T11:12:18.909Z,8.40
2023-01-31T11:14:45.498Z,8.70
2023-01-31T11:17:17.172Z,11.00
2023-01-31T11:19:48.405Z,9.70
2023-01-31T11:22:29.230Z,11.10
2023-01-31T11:24:56.667Z,11.10
2023-01-31T11:27:27.876Z,10.80
2023-01-31T11:29:59.939Z,11.10
2023-01-31T11:32:32.425Z,11.40
2023-01-31T11:35:04.227Z,9.10
2023-01-31T11:37:34.039Z,3.10
2023-01-31T11:40:02.172Z,1.00
2023-01-31T11:42:28.828Z,1.00
2023-01-31T11:44:56.388Z,1.00
2023-01-31T11:47:38.395Z,1.00
2023-01-31T11:50:05.455Z,1.00
2023-01-31T11:52:33.502Z,1.00
2023-01-31T11:55:01.894Z,1.00
2023-01-31T11:57:35.799Z,1.00
2023-01-31T12:00:04.829Z,1.00
2023-01-31T12:02:38.963Z,1.00
2023-01-31T12:05:10.138Z,1.00
2023-01-31T12:07:44.657Z,1.00
2023-01-31T12:10:28.915Z,1.00
2023-01-31T12:13:08.857Z,1.50
2023-01-31T12:15:50.150Z,3.80
2023-01-31T12:18:21.730Z,4.20
2023-01-31T12:20:58.869Z,6.50
2023-01-31T12:23:37.562Z,7.80
2023-01-31T12:26:09.350Z,8.70
2023-01-31T12:28:42.195Z,8.70
2023-01-31T12:31:23.964Z,9.30
2023-01-31T12:33:55.706Z,10.20
2023-01-31T12:36:30.120Z,11.30
2023-01-31T12:39:02.502Z,12.20
2023-01-31T12:41:47.989Z,13.10
2023-01-31T12:44:20.652Z,13.70
2023-01-31T12:47:11.488Z,14.50
2023-01-31T12:49:39.292Z,14.60
2023-01-31T12:52:09.953Z,15.50
2023-01-31T12:54:59.866Z,17.50
2023-01-31T12:57:35.868Z,17.50
2023-01-31T13:00:29.250Z,17.80
2023-01-31T13:03:14.466Z,19.10
2023-01-31T13:06:07.311Z,20.20
2023-01-31T13:08:35.276Z,20.90
2023-01-31T13:11:03.836Z,21.20
2023-01-31T13:13:40.318Z,21.30
2023-01-31T13:16:29.198Z,20.40
2023-01-31T13:18:58.074Z,20.20
2023-01-31T13:21:27.135Z,20.50
2023-01-31T13:23:55.633Z,21.30
2023-01-31T13:26:26.531Z,22.80
2023-01-31T13:28:57.986Z,23.00
2023-01-31T13:31:26.306Z,24.30
2023-01-31T13:34:01.412Z,25.90
2023-01-31T13:36:31.015Z,25.90
2023-01-31T13:38:57.934Z,25.90
2023-01-31T13:41:28.929Z,25.80
2023-01-31T13:43:57.432Z,27.20
2023-01-31T13:46:29.912Z,27.50
2023-01-31T13:49:01.107Z,28.10
2023-01-31T13:51:27.726Z,28.80
2023-01-31T13:54:01.618Z,28.80
2023-01-31T13:56:29.862Z,28.70
2023-01-31T13:58:56.844Z,29.20
2023-01-31T14:01:27.621Z,30.10
2023-01-31T14:04:14.030Z,30.10
2023-01-31T14:06:49.739Z,29.30
2023-01-31T14:09:36.313Z,30.10
2023-01-31T14:12:15.725Z,31.70
2023-01-31T14:14:51.176Z,30.40
2023-01-31T14:17:23.628Z,30.70
2023-01-31T14:19:50.104Z,31.00
2023-01-31T14:22:24.619Z,29.70
2023-01-31T14:24:53.395Z,30.10
2023-01-31T14:27:21.650Z,30.90
2023-01-31T14:29:49.589Z,30.10
2023-01-31T14:32:22.122Z,30.10
2023-01-31T14:34:49.617Z,31.60
2023-01-31T14:37:21.980Z,31.50
2023-01-31T14:40:09.364Z,31.10
2023-01-31T14:42:54.384Z,30.80
2023-01-31T14:45:21.712Z,30.60
2023-01-31T14:47:58.050Z,30.10
2023-01-31T14:50:24.586Z,31.10
2023-01-31T14:52:58.688Z,30.90
2023-01-31T14:55:33.835Z,30.90
2023-01-31T14:58:01.531Z,30.30
2023-01-31T15:00:36.480Z,30.80
2023-01-31T15:03:03.172Z,29.40
2023-01-31T15:05:32.580Z,29.20
2023-01-31T15:08:06.465Z,29.40
2023-01-31T15:10:51.749Z,30.00
2023-01-31T15:13:35.562Z,29.70
2023-01-31T15:16:07.563Z,29.60
2023-01-31T15:18:34.521Z,29.00
2023-01-31T15:21:03.101Z,29.10
2023-01-31T15:23:30.967Z,29.80
2023-01-31T15:25:58.840Z,31.50
2023-01-31T15:28:28.319Z,29.40
2023-01-31T15:30:56.672Z,29.90
2023-01-31T15:33:29.343Z,30.00
2023-01-31T15:36:01.463Z,30.00
2023-01-31T15:38:33.552Z,31.80
2023-01-31T15:41:12.271Z,30.80
2023-01-31T15:43:39.591Z,29.80
2023-01-31T15:46:24.839Z,29.90
2023-01-31T15:48:51.755Z,29.90
2023-01-31T15:51:19.619Z,29.30
2023-01-31T15:53:47.532Z,30.00
2023-01-31T15:56:21.814Z,30.20
2023-01-31T15:58:49.868Z,29.80
2023-01-31T16:01:17.673Z,29.90
2023-01-31T16:03:57.928Z,29.80
2023-01-31T16:06:26.541Z,29.50
2023-01-31T16:09:01.427Z,29.70
2023-01-31T16:11:33.447Z,30.00
2023-01-31T16:14:01.724Z,30.90
2023-01-31T16:16:29.413Z,31.10
2023-01-31T16:18:57.625Z,31.80
2023-01-31T16:21:31.863Z,31.70
2023-01-31T16:24:14.932Z,32.60
2023-01-31T16:26:48.074Z,32.20
2023-01-31T16:29:16.110Z,32.50
2023-01-31T16:31:50.833Z,32.80
2023-01-31T16:34:26.388Z,33.10
2023-01-31T16:37:01.149Z,33.10
2023-01-31T16:39:36.495Z,32.90
2023-01-31T16:42:04.684Z,33.90
2023-01-31T16:44:36.125Z,35.60
2023-01-31T16:47:04.339Z,36.50
2023-01-31T16:49:35.552Z,37.80
2023-01-31T16:52:17.704Z,40.50
2023-01-31T16:54:48.654Z,42.40
2023-01-31T16:57:38.177Z,43.90
2023-01-31T17:00:23.978Z,44.90
2023-01-31T17:02:51.598Z,45.30
2023-01-31T17:05:23.533Z,46.30
2023-01-31T17:07:50.925Z,46.30
2023-01-31T17:10:26.562Z,46.30
2023-01-31T17:13:05.114Z,46.30
2023-01-31T17:15:31.906Z,46.40
2023-01-31T17:17:58.465Z,46.30
2023-01-31T17:20:24.969Z,46.40
2023-01-31T17:23:02.467Z,47.30
2023-01-31T17:25:32.206Z,48.40
2023-01-31T17:27:58.836Z,49.00
2023-01-31T17:30:27.865Z,49.50
2023-01-31T17:32:57.150Z,50.30
2023-01-31T17:35:25.657Z,48.90
2023-01-31T17:37:52.312Z,48.80
2023-01-31T17:40:18.982Z,48.90
2023-01-31T17:42:45.591Z,49.60
2023-01-31T17:45:13.435Z,50.30
2023-01-31T17:47:40.237Z,50.30
2023-01-31T17:50:07.248Z,50.00
2023-01-31T17:52:33.766Z,50.90
2023-01-31T17:55:00.341Z,51.10
2023-01-31T17:57:26.926Z,51.60
2023-01-31T17:59:53.686Z,51.80
2023-01-31T18:02:20.321Z,52.40
2023-01-31T18:04:46.833Z,52.80
2023-01-31T18:07:15.211Z,53.80
2023-01-31T18:09:41.717Z,54.00
2023-01-31T18:12:08.284Z,56.30
2023-01-31T18:14:35.033Z,56.80
2023-01-31T18:17:01.552Z,57.70
2023-01-31T18:19:28.454Z,59.20
2023-01-31T18:21:55.819Z,60.60
2023-01-31T18:24:22.920Z,60.80
2023-01-31T18:26:49.526Z,59.90
2023-01-31T18:29:19.713Z,58.80
2023-01-31T18:31:47.137Z,59.30
2023-01-31T18:34:13.707Z,59.90
2023-01-31T18:36:40.407Z,59.50
2023-01-31T18:39:07.384Z,60.00
2023-01-31T18:41:34.020Z,59.80
2023-01-31T18:44:00.748Z,60.00
2023-01-31T18:46:28.002Z,60.10
2023-01-31T18:48:54.670Z,59.80
2023-01-31T18:51:21.244Z,61.40
2023-01-31T18:53:48.998Z,61.70
2023-01-31T18:56:19.951Z,63.40
2023-01-31T18:58:49.074Z,66.00
2023-01-31T19:01:20.036Z,65.40
2023-01-31T19:03:47.553Z,65.30
2023-01-31T19:06:15.323Z,66.00
2023-01-31T19:08:42.065Z,66.00
2023-01-31T19:11:10.400Z,66.10
2023-01-31T19:13:37.177Z,66.10
2023-01-31T19:16:05.707Z,66.00
2023-01-31T19:18:32.479Z,66.10
2023-01-31T19:20:59.060Z,66.10
2023-01-31T19:23:26.092Z,66.00
2023-01-31T19:25:52.721Z,66.00
2023-01-31T19:28:22.803Z,66.00
2023-01-31T19:30:50.823Z,66.00
2023-01-31T19:33:18.008Z,66.60
2023-01-31T19:35:44.747Z,67.30
2023-01-31T19:38:11.320Z,67.80
2023-01-31T19:40:37.989Z,68.80
2023-01-31T19:43:04.639Z,69.50
2023-01-31T19:45:31.326Z,71.00
2023-01-31T19:47:59.294Z,71.70
2023-01-31T19:50:25.835Z,72.60
2023-01-31T19:52:52.393Z,73.40
2023-01-31T19:55:19.351Z,74.40
2023-01-31T19:57:46.050Z,74.40
2023-01-31T20:00:12.895Z,74.50
2023-01-31T20:02:42.016Z,74.40
2023-01-31T20:05:09.573Z,74.40
2023-01-31T20:07:37.652Z,74.40
2023-01-31T20:10:04.709Z,74.40
2023-01-31T20:12:31.218Z,73.50
2023-01-31T20:14:57.922Z,72.40
2023-01-31T20:17:25.077Z,72.20
2023-01-31T20:19:51.654Z,71.80
2023-01-31T20:22:21.798Z,71.30
2023-01-31T20:24:48.954Z,70.80
2023-01-31T20:27:15.616Z,71.00
2023-01-31T20:29:42.132Z,70.80
2023-01-31T20:32:10.213Z,70.30
2023-01-31T20:34:36.932Z,70.40
2023-01-31T20:37:03.542Z,69.90
2023-01-31T20:39:30.054Z,69.20
2023-01-31T20:41:57.116Z,69.10
2023-01-31T20:44:23.653Z,68.20
2023-01-31T20:46:50.533Z,68.70
2023-01-31T20:49:17.108Z,68.10
2023-01-31T20:51:43.652Z,67.60
2023-01-31T20:54:10.204Z,67.20
2023-01-31T20:56:36.762Z,68.00
2023-01-31T20:59:03.331Z,67.20
2023-01-31T21:01:29.900Z,66.70
2023-01-31T21:03:56.611Z,66.20
2023-01-31T21:06:23.180Z,66.90
2023-01-31T21:08:49.779Z,66.20
2023-01-31T21:11:16.371Z,66.30
2023-01-31T21:13:43.922Z,66.20
2023-01-31T21:16:11.474Z,68.50
2023-01-31T21:18:39.187Z,67.00
2023-01-31T21:21:07.363Z,67.60
2023-01-31T21:23:37.717Z,70.00
2023-01-31T21:26:05.672Z,69.80
2023-01-31T21:28:32.639Z,70.40
2023-01-31T21:31:03.720Z,73.80
2023-01-31T21:33:30.421Z,74.60
2023-01-31T21:35:58.197Z,76.70
2023-01-31T21:38:25.226Z,78.70
2023-01-31T21:41:14.807Z,79.60
2023-01-31T21:43:41.371Z,80.30
2023-01-31T21:46:11.535Z,80.80
2023-01-31T21:48:38.554Z,82.70
2023-01-31T21:51:09.631Z,82.70
2023-01-31T21:53:36.710Z,83.70
2023-01-31T21:56:06.336Z,83.20
2023-01-31T21:58:33.793Z,83.90
2023-01-31T22:01:02.161Z,85.00
2023-01-31T22:03:28.717Z,84.50
2023-01-31T22:06:00.264Z,83.70
2023-01-31T22:08:26.846Z,84.30
2023-01-31T22:11:19.890Z,84.70
2023-01-31T22:13:47.287Z,83.80
2023-01-31T22:16:14.754Z,82.60
2023-01-31T22:18:42.575Z,82.90
2023-01-31T22:21:13.371Z,82.60
2023-01-31T22:23:40.701Z,82.60
2023-01-31T22:26:08.743Z,82.60
2023-01-31T22:28:35.766Z,82.60
2023-01-31T22:31:03.215Z,82.40
2023-01-31T22:33:30.765Z,82.00
2023-01-31T22:35:57.392Z,81.30
2023-01-31T22:38:24.223Z,81.00
2023-01-31T22:40:50.862Z,81.00
2023-01-31T22:43:18.794Z,80.70
2023-01-31T22:45:46.285Z,80.10
2023-01-31T22:48:13.690Z,79.40
2023-01-31T22:50:40.749Z,78.60
2023-01-31T22:53:07.796Z,79.60
2023-01-31T22:55:38.698Z,79.20
2023-01-31T22:58:05.670Z,78.80
2023-01-31T23:00:32.858Z,78.10
2023-01-31T23:02:59.489Z,78.10
2023-01-31T23:05:26.074Z,77.70
2023-01-31T23:07:52.726Z,77.50
2023-01-31T23:10:20.067Z,77.40
2023-01-31T23:12:46.963Z,78.00
2023-01-31T23:15:13.866Z,78.00
2023-01-31T23:17:40.942Z,78.30
2023-01-31T23:20:12.031Z,78.00
2023-01-31T23:22:38.760Z,78.20
2023-01-31T23:25:06.531Z,78.30
2023-01-31T23:27:33.105Z,78.60
2023-01-31T23:29:59.777Z,78.60
2023-01-31T23:32:26.337Z,79.30
2023-01-31T23:34:52.937Z,80.50
2023-01-31T23:37:20.657Z,80.30
2023-01-31T23:39:47.381Z,80.50
2023-01-31T23:42:13.876Z,81.10
2023-01-31T23:44:40.489Z,81.50
2023-01-31T23:47:07.109Z,82.50
2023-01-31T23:49:33.661Z,82.70
2023-01-31T23:52:00.206Z,82.70
2023-01-31T23:54:26.852Z,82.70
2023-01-31T23:56:53.395Z,82.70
2023-01-31T23:59:20.484Z,82.70
